sensor_id;sensor_type;location;lat;lon;timestamp;P1;durP1;ratioP1;P2;durP2;ratioP2
23206;SDS011;11773;52.570;13.052;2023-05-07T00:00:28;2.80;;;2.60;;
23206;SDS011;11773;52.570;13.052;2023-05-07T00:02:58;3.00;;;2.70;;
23206;SDS011;11773;52.570;13.052;2023-05-07T00:05:28;2.40;;;2.20;;
23206;SDS011;11773;52.570;13.052;2023-05-07T00:07:58;2.97;;;2.77;;
23206;SDS011;11773;52.570;13.052;2023-05-07T00:10:28;3.20;;;2.90;;
23206;SDS011;11773;52.570;13.052;2023-05-07T00:12:57;3.20;;;2.90;;
23206;SDS011;11773;52.570;13.052;2023-05-07T00:15:27;2.60;;;2.40;;
23206;SDS011;11773;52.570;13.052;2023-05-07T00:17:57;2.33;;;2.13;;
23206;SDS011;11773;52.570;13.052;2023-05-07T00:20:26;2.63;;;2.40;;
23206;SDS011;11773;52.570;13.052;2023-05-07T00:22:56;3.07;;;2.77;;
23206;SDS011;11773;52.570;13.052;2023-05-07T00:25:26;2.50;;;2.30;;
23206;SDS011;11773;52.570;13.052;2023-05-07T00:27:55;2.40;;;2.20;;
23206;SDS011;11773;52.570;13.052;2023-05-07T00:30:26;2.40;;;1.90;;
23206;SDS011;11773;52.570;13.052;2023-05-07T00:32:56;2.43;;;2.23;;
23206;SDS011;11773;52.570;13.052;2023-05-07T00:35:26;2.30;;;2.10;;
23206;SDS011;11773;52.570;13.052;2023-05-07T00:37:57;2.97;;;2.40;;
23206;SDS011;11773;52.570;13.052;2023-05-07T00:40:27;2.57;;;2.37;;
23206;SDS011;11773;52.570;13.052;2023-05-07T00:42:56;2.67;;;2.47;;
23206;SDS011;11773;52.570;13.052;2023-05-07T00:45:27;2.17;;;1.97;;
23206;SDS011;11773;52.570;13.052;2023-05-07T00:47:57;2.70;;;2.33;;
23206;SDS011;11773;52.570;13.052;2023-05-07T00:50:31;2.17;;;1.97;;
23206;SDS011;11773;52.570;13.052;2023-05-07T00:53:01;2.37;;;2.17;;
23206;SDS011;11773;52.570;13.052;2023-05-07T00:55:32;1.63;;;1.53;;
23206;SDS011;11773;52.570;13.052;2023-05-07T00:58:03;2.30;;;2.10;;
23206;SDS011;11773;52.570;13.052;2023-05-07T01:00:34;2.50;;;2.30;;
23206;SDS011;11773;52.570;13.052;2023-05-07T01:03:03;2.20;;;2.07;;
23206;SDS011;11773;52.570;13.052;2023-05-07T01:05:34;3.30;;;3.00;;
23206;SDS011;11773;52.570;13.052;2023-05-07T01:08:05;3.43;;;2.90;;
23206;SDS011;11773;52.570;13.052;2023-05-07T01:10:35;2.80;;;2.60;;
23206;SDS011;11773;52.570;13.052;2023-05-07T01:13:04;3.10;;;2.80;;
23206;SDS011;11773;52.570;13.052;2023-05-07T01:15:34;3.20;;;2.90;;
23206;SDS011;11773;52.570;13.052;2023-05-07T01:18:05;2.50;;;2.27;;
23206;SDS011;11773;52.570;13.052;2023-05-07T01:20:35;2.90;;;2.60;;
23206;SDS011;11773;52.570;13.052;2023-05-07T01:23:04;1.70;;;1.60;;
23206;SDS011;11773;52.570;13.052;2023-05-07T01:25:35;2.53;;;2.33;;
23206;SDS011;11773;52.570;13.052;2023-05-07T01:28:05;2.10;;;2.00;;
23206;SDS011;11773;52.570;13.052;2023-05-07T01:30:34;2.33;;;2.10;;
23206;SDS011;11773;52.570;13.052;2023-05-07T01:33:11;1.80;;;1.70;;
23206;SDS011;11773;52.570;13.052;2023-05-07T01:35:45;2.10;;;1.87;;
23206;SDS011;11773;52.570;13.052;2023-05-07T01:38:18;1.93;;;1.77;;
23206;SDS011;11773;52.570;13.052;2023-05-07T01:40:50;1.33;;;1.23;;
23206;SDS011;11773;52.570;13.052;2023-05-07T01:43:20;1.80;;;1.57;;
23206;SDS011;11773;52.570;13.052;2023-05-07T01:45:50;1.53;;;1.43;;
23206;SDS011;11773;52.570;13.052;2023-05-07T01:48:21;1.37;;;1.27;;
23206;SDS011;11773;52.570;13.052;2023-05-07T01:50:53;1.50;;;1.40;;
23206;SDS011;11773;52.570;13.052;2023-05-07T01:53:23;2.67;;;1.67;;
23206;SDS011;11773;52.570;13.052;2023-05-07T01:55:56;2.40;;;2.20;;
23206;SDS011;11773;52.570;13.052;2023-05-07T01:58:26;2.67;;;2.43;;
23206;SDS011;11773;52.570;13.052;2023-05-07T02:00:55;2.40;;;2.20;;
23206;SDS011;11773;52.570;13.052;2023-05-07T02:03:25;2.67;;;2.47;;
23206;SDS011;11773;52.570;13.052;2023-05-07T02:05:55;2.37;;;2.17;;
23206;SDS011;11773;52.570;13.052;2023-05-07T02:08:24;2.53;;;2.33;;
23206;SDS011;11773;52.570;13.052;2023-05-07T02:10:54;2.30;;;2.10;;
23206;SDS011;11773;52.570;13.052;2023-05-07T02:13:25;3.67;;;2.53;;
23206;SDS011;11773;52.570;13.052;2023-05-07T02:15:57;2.30;;;2.10;;
23206;SDS011;11773;52.570;13.052;2023-05-07T02:18:27;2.70;;;2.30;;
23206;SDS011;11773;52.570;13.052;2023-05-07T02:20:57;2.17;;;1.97;;
23206;SDS011;11773;52.570;13.052;2023-05-07T02:23:27;2.03;;;1.90;;
23206;SDS011;11773;52.570;13.052;2023-05-07T02:25:56;2.80;;;2.60;;
23206;SDS011;11773;52.570;13.052;2023-05-07T02:28:26;2.00;;;1.90;;
23206;SDS011;11773;52.570;13.052;2023-05-07T02:30:55;2.40;;;1.60;;
23206;SDS011;11773;52.570;13.052;2023-05-07T02:33:28;2.40;;;2.07;;
23206;SDS011;11773;52.570;13.052;2023-05-07T02:36:04;2.83;;;2.63;;
23206;SDS011;11773;52.570;13.052;2023-05-07T02:38:36;2.20;;;2.00;;
23206;SDS011;11773;52.570;13.052;2023-05-07T02:41:06;3.30;;;3.00;;
23206;SDS011;11773;52.570;13.052;2023-05-07T02:43:36;2.97;;;2.70;;
23206;SDS011;11773;52.570;13.052;2023-05-07T02:46:06;2.60;;;2.40;;
23206;SDS011;11773;52.570;13.052;2023-05-07T02:48:37;2.07;;;1.87;;
23206;SDS011;11773;52.570;13.052;2023-05-07T02:51:07;1.60;;;1.50;;
23206;SDS011;11773;52.570;13.052;2023-05-07T02:53:37;1.57;;;1.47;;
23206;SDS011;11773;52.570;13.052;2023-05-07T02:56:06;2.37;;;2.17;;
23206;SDS011;11773;52.570;13.052;2023-05-07T02:58:36;4.13;;;3.43;;
23206;SDS011;11773;52.570;13.052;2023-05-07T03:01:12;2.40;;;2.20;;
23206;SDS011;11773;52.570;13.052;2023-05-07T03:03:42;2.63;;;2.43;;
23206;SDS011;11773;52.570;13.052;2023-05-07T03:06:12;2.57;;;2.37;;
23206;SDS011;11773;52.570;13.052;2023-05-07T03:08:42;1.70;;;1.60;;
23206;SDS011;11773;52.570;13.052;2023-05-07T03:11:12;3.23;;;2.63;;
23206;SDS011;11773;52.570;13.052;2023-05-07T03:13:41;3.77;;;3.10;;
23206;SDS011;11773;52.570;13.052;2023-05-07T03:16:11;2.80;;;2.60;;
23206;SDS011;11773;52.570;13.052;2023-05-07T03:18:41;2.47;;;2.20;;
23206;SDS011;11773;52.570;13.052;2023-05-07T03:21:10;2.93;;;2.50;;
23206;SDS011;11773;52.570;13.052;2023-05-07T03:23:40;2.40;;;2.20;;
23206;SDS011;11773;52.570;13.052;2023-05-07T03:26:10;2.60;;;2.03;;
23206;SDS011;11773;52.570;13.052;2023-05-07T03:28:39;2.57;;;2.37;;
23206;SDS011;11773;52.570;13.052;2023-05-07T03:31:09;2.57;;;2.37;;
23206;SDS011;11773;52.570;13.052;2023-05-07T03:33:47;3.13;;;2.83;;
23206;SDS011;11773;52.570;13.052;2023-05-07T03:36:20;3.00;;;2.70;;
23206;SDS011;11773;52.570;13.052;2023-05-07T03:38:53;2.40;;;2.20;;
23206;SDS011;11773;52.570;13.052;2023-05-07T03:41:22;3.20;;;2.90;;
23206;SDS011;11773;52.570;13.052;2023-05-07T03:43:53;2.93;;;2.63;;
23206;SDS011;11773;52.570;13.052;2023-05-07T03:46:22;3.07;;;2.50;;
23206;SDS011;11773;52.570;13.052;2023-05-07T03:48:53;2.87;;;2.60;;
23206;SDS011;11773;52.570;13.052;2023-05-07T03:51:23;3.77;;;3.37;;
23206;SDS011;11773;52.570;13.052;2023-05-07T03:53:53;3.20;;;2.90;;
23206;SDS011;11773;52.570;13.052;2023-05-07T03:56:24;2.30;;;2.10;;
23206;SDS011;11773;52.570;13.052;2023-05-07T03:58:54;2.23;;;2.00;;
23206;SDS011;11773;52.570;13.052;2023-05-07T04:01:25;2.30;;;2.10;;
23206;SDS011;11773;52.570;13.052;2023-05-07T04:03:54;2.40;;;2.20;;
23206;SDS011;11773;52.570;13.052;2023-05-07T04:06:24;2.43;;;2.23;;
23206;SDS011;11773;52.570;13.052;2023-05-07T04:08:54;2.77;;;2.50;;
23206;SDS011;11773;52.570;13.052;2023-05-07T04:11:24;3.10;;;2.57;;
23206;SDS011;11773;52.570;13.052;2023-05-07T04:13:53;2.20;;;2.00;;
23206;SDS011;11773;52.570;13.052;2023-05-07T04:16:23;2.27;;;2.13;;
23206;SDS011;11773;52.570;13.052;2023-05-07T04:18:53;2.90;;;2.60;;
23206;SDS011;11773;52.570;13.052;2023-05-07T04:21:22;2.70;;;2.50;;
23206;SDS011;11773;52.570;13.052;2023-05-07T04:23:53;2.87;;;2.60;;
23206;SDS011;11773;52.570;13.052;2023-05-07T04:26:23;2.53;;;2.33;;
23206;SDS011;11773;52.570;13.052;2023-05-07T04:28:53;2.27;;;2.07;;
23206;SDS011;11773;52.570;13.052;2023-05-07T04:31:24;1.87;;;1.77;;
23206;SDS011;11773;52.570;13.052;2023-05-07T04:33:54;2.30;;;2.10;;
23206;SDS011;11773;52.570;13.052;2023-05-07T04:36:24;2.17;;;1.97;;
23206;SDS011;11773;52.570;13.052;2023-05-07T04:38:56;2.20;;;2.00;;
23206;SDS011;11773;52.570;13.052;2023-05-07T04:41:26;2.40;;;2.20;;
23206;SDS011;11773;52.570;13.052;2023-05-07T04:43:55;2.57;;;2.37;;
23206;SDS011;11773;52.570;13.052;2023-05-07T04:46:26;2.43;;;2.23;;
23206;SDS011;11773;52.570;13.052;2023-05-07T04:48:55;3.47;;;3.17;;
23206;SDS011;11773;52.570;13.052;2023-05-07T04:51:25;3.73;;;3.20;;
23206;SDS011;11773;52.570;13.052;2023-05-07T04:53:55;2.63;;;2.43;;
23206;SDS011;11773;52.570;13.052;2023-05-07T04:56:27;2.80;;;2.60;;
23206;SDS011;11773;52.570;13.052;2023-05-07T04:58:57;2.50;;;2.30;;
23206;SDS011;11773;52.570;13.052;2023-05-07T05:01:27;2.60;;;2.40;;
23206;SDS011;11773;52.570;13.052;2023-05-07T05:03:56;2.10;;;1.90;;
23206;SDS011;11773;52.570;13.052;2023-05-07T05:06:28;2.30;;;2.10;;
23206;SDS011;11773;52.570;13.052;2023-05-07T05:08:57;1.70;;;1.60;;
23206;SDS011;11773;52.570;13.052;2023-05-07T05:11:27;2.30;;;2.20;;
23206;SDS011;11773;52.570;13.052;2023-05-07T05:13:58;5.40;;;3.00;;
23206;SDS011;11773;52.570;13.052;2023-05-07T05:16:28;2.50;;;2.30;;
23206;SDS011;11773;52.570;13.052;2023-05-07T05:18:58;2.97;;;2.53;;
23206;SDS011;11773;52.570;13.052;2023-05-07T05:21:31;2.80;;;2.60;;
23206;SDS011;11773;52.570;13.052;2023-05-07T05:24:01;3.70;;;3.40;;
23206;SDS011;11773;52.570;13.052;2023-05-07T05:26:31;3.13;;;2.83;;
23206;SDS011;11773;52.570;13.052;2023-05-07T05:29:00;2.33;;;2.13;;
23206;SDS011;11773;52.570;13.052;2023-05-07T05:31:30;3.17;;;2.47;;
23206;SDS011;11773;52.570;13.052;2023-05-07T05:34:00;2.33;;;2.00;;
23206;SDS011;11773;52.570;13.052;2023-05-07T05:36:30;2.50;;;2.30;;
23206;SDS011;11773;52.570;13.052;2023-05-07T05:39:00;2.77;;;2.53;;
23206;SDS011;11773;52.570;13.052;2023-05-07T05:41:30;2.40;;;2.20;;
23206;SDS011;11773;52.570;13.052;2023-05-07T05:43:59;2.40;;;2.20;;
23206;SDS011;11773;52.570;13.052;2023-05-07T05:46:29;2.57;;;2.37;;
23206;SDS011;11773;52.570;13.052;2023-05-07T05:49:00;2.80;;;2.60;;
23206;SDS011;11773;52.570;13.052;2023-05-07T05:51:30;2.60;;;2.40;;
23206;SDS011;11773;52.570;13.052;2023-05-07T05:53:59;2.90;;;2.60;;
23206;SDS011;11773;52.570;13.052;2023-05-07T05:56:29;2.53;;;2.33;;
23206;SDS011;11773;52.570;13.052;2023-05-07T05:58:58;2.50;;;2.30;;
23206;SDS011;11773;52.570;13.052;2023-05-07T06:01:29;2.75;;;2.30;;
23206;SDS011;11773;52.570;13.052;2023-05-07T06:03:58;2.63;;;1.93;;
23206;SDS011;11773;52.570;13.052;2023-05-07T06:06:28;2.77;;;2.33;;
23206;SDS011;11773;52.570;13.052;2023-05-07T06:08:58;2.70;;;2.50;;
23206;SDS011;11773;52.570;13.052;2023-05-07T06:11:28;2.70;;;2.50;;
23206;SDS011;11773;52.570;13.052;2023-05-07T06:13:59;2.03;;;1.83;;
23206;SDS011;11773;52.570;13.052;2023-05-07T06:16:28;1.30;;;1.30;;
23206;SDS011;11773;52.570;13.052;2023-05-07T06:18:58;2.00;;;1.80;;
23206;SDS011;11773;52.570;13.052;2023-05-07T06:21:28;2.37;;;1.97;;
23206;SDS011;11773;52.570;13.052;2023-05-07T06:23:57;2.90;;;2.70;;
23206;SDS011;11773;52.570;13.052;2023-05-07T06:26:27;2.60;;;2.40;;
23206;SDS011;11773;52.570;13.052;2023-05-07T06:28:57;2.60;;;2.20;;
23206;SDS011;11773;52.570;13.052;2023-05-07T06:31:29;2.23;;;2.07;;
23206;SDS011;11773;52.570;13.052;2023-05-07T06:33:58;2.50;;;2.30;;
23206;SDS011;11773;52.570;13.052;2023-05-07T06:36:29;3.10;;;2.80;;
23206;SDS011;11773;52.570;13.052;2023-05-07T06:38:59;2.60;;;2.40;;
23206;SDS011;11773;52.570;13.052;2023-05-07T06:41:28;2.00;;;1.90;;
23206;SDS011;11773;52.570;13.052;2023-05-07T06:43:58;2.50;;;2.30;;
23206;SDS011;11773;52.570;13.052;2023-05-07T06:46:27;2.93;;;2.33;;
23206;SDS011;11773;52.570;13.052;2023-05-07T06:48:57;2.50;;;2.30;;
23206;SDS011;11773;52.570;13.052;2023-05-07T06:51:27;2.20;;;2.00;;
23206;SDS011;11773;52.570;13.052;2023-05-07T06:53:57;2.30;;;2.10;;
23206;SDS011;11773;52.570;13.052;2023-05-07T06:56:26;2.30;;;2.10;;
23206;SDS011;11773;52.570;13.052;2023-05-07T06:58:56;2.37;;;2.03;;
23206;SDS011;11773;52.570;13.052;2023-05-07T07:01:25;2.50;;;2.30;;
23206;SDS011;11773;52.570;13.052;2023-05-07T07:03:56;3.00;;;2.50;;
23206;SDS011;11773;52.570;13.052;2023-05-07T07:06:25;3.07;;;2.77;;
23206;SDS011;11773;52.570;13.052;2023-05-07T07:08:55;3.10;;;2.80;;
23206;SDS011;11773;52.570;13.052;2023-05-07T07:11:25;3.00;;;2.80;;
23206;SDS011;11773;52.570;13.052;2023-05-07T07:13:54;3.07;;;2.77;;
23206;SDS011;11773;52.570;13.052;2023-05-07T07:16:24;2.87;;;2.50;;
23206;SDS011;11773;52.570;13.052;2023-05-07T07:18:53;2.60;;;2.40;;
23206;SDS011;11773;52.570;13.052;2023-05-07T07:21:23;2.90;;;2.70;;
23206;SDS011;11773;52.570;13.052;2023-05-07T07:23:52;2.83;;;2.53;;
23206;SDS011;11773;52.570;13.052;2023-05-07T07:26:22;2.30;;;2.10;;
23206;SDS011;11773;52.570;13.052;2023-05-07T07:28:51;2.43;;;2.23;;
23206;SDS011;11773;52.570;13.052;2023-05-07T07:31:21;2.50;;;2.30;;
23206;SDS011;11773;52.570;13.052;2023-05-07T07:33:50;1.93;;;1.83;;
23206;SDS011;11773;52.570;13.052;2023-05-07T07:36:20;2.60;;;2.40;;
23206;SDS011;11773;52.570;13.052;2023-05-07T07:38:51;3.50;;;3.20;;
23206;SDS011;11773;52.570;13.052;2023-05-07T07:41:22;3.17;;;2.87;;
23206;SDS011;11773;52.570;13.052;2023-05-07T07:43:52;3.40;;;3.10;;
23206;SDS011;11773;52.570;13.052;2023-05-07T07:46:21;2.83;;;2.63;;
23206;SDS011;11773;52.570;13.052;2023-05-07T07:48:51;2.00;;;1.80;;
23206;SDS011;11773;52.570;13.052;2023-05-07T07:51:20;2.07;;;1.97;;
23206;SDS011;11773;52.570;13.052;2023-05-07T07:53:50;3.00;;;2.60;;
23206;SDS011;11773;52.570;13.052;2023-05-07T07:56:19;2.53;;;2.33;;
23206;SDS011;11773;52.570;13.052;2023-05-07T07:58:49;2.40;;;2.20;;
23206;SDS011;11773;52.570;13.052;2023-05-07T08:01:19;2.77;;;1.90;;
23206;SDS011;11773;52.570;13.052;2023-05-07T08:03:48;1.57;;;1.47;;
23206;SDS011;11773;52.570;13.052;2023-05-07T08:06:24;2.70;;;2.50;;
23206;SDS011;11773;52.570;13.052;2023-05-07T08:08:49;2.50;;;2.30;;
23206;SDS011;11773;52.570;13.052;2023-05-07T08:11:19;3.33;;;2.40;;
23206;SDS011;11773;52.570;13.052;2023-05-07T08:13:48;2.40;;;2.20;;
23206;SDS011;11773;52.570;13.052;2023-05-07T08:16:21;2.30;;;2.10;;
23206;SDS011;11773;52.570;13.052;2023-05-07T08:18:51;2.20;;;2.00;;
23206;SDS011;11773;52.570;13.052;2023-05-07T08:21:20;2.20;;;2.00;;
23206;SDS011;11773;52.570;13.052;2023-05-07T08:23:51;1.90;;;1.80;;
23206;SDS011;11773;52.570;13.052;2023-05-07T08:26:20;2.30;;;1.87;;
23206;SDS011;11773;52.570;13.052;2023-05-07T08:28:50;1.83;;;1.70;;
23206;SDS011;11773;52.570;13.052;2023-05-07T08:31:19;1.70;;;1.60;;
23206;SDS011;11773;52.570;13.052;2023-05-07T08:33:49;1.30;;;1.20;;
23206;SDS011;11773;52.570;13.052;2023-05-07T08:36:19;2.00;;;1.80;;
23206;SDS011;11773;52.570;13.052;2023-05-07T08:38:49;2.20;;;2.00;;
23206;SDS011;11773;52.570;13.052;2023-05-07T08:41:18;2.20;;;2.10;;
23206;SDS011;11773;52.570;13.052;2023-05-07T08:43:48;1.90;;;1.80;;
23206;SDS011;11773;52.570;13.052;2023-05-07T08:46:19;1.60;;;1.50;;
23206;SDS011;11773;52.570;13.052;2023-05-07T08:48:50;2.80;;;2.17;;
23206;SDS011;11773;52.570;13.052;2023-05-07T08:51:20;1.97;;;1.87;;
23206;SDS011;11773;52.570;13.052;2023-05-07T08:53:50;1.53;;;1.43;;
23206;SDS011;11773;52.570;13.052;2023-05-07T08:56:20;1.50;;;1.40;;
23206;SDS011;11773;52.570;13.052;2023-05-07T08:58:49;1.60;;;1.50;;
23206;SDS011;11773;52.570;13.052;2023-05-07T09:01:20;2.13;;;1.60;;
23206;SDS011;11773;52.570;13.052;2023-05-07T09:03:50;1.63;;;1.27;;
23206;SDS011;11773;52.570;13.052;2023-05-07T09:06:21;1.13;;;1.03;;
23206;SDS011;11773;52.570;13.052;2023-05-07T09:08:52;1.33;;;1.23;;
23206;SDS011;11773;52.570;13.052;2023-05-07T09:11:24;2.00;;;1.90;;
23206;SDS011;11773;52.570;13.052;2023-05-07T09:13:54;1.70;;;1.60;;
23206;SDS011;11773;52.570;13.052;2023-05-07T09:16:28;1.63;;;1.53;;
23206;SDS011;11773;52.570;13.052;2023-05-07T09:18:59;1.70;;;1.60;;
23206;SDS011;11773;52.570;13.052;2023-05-07T09:21:28;1.77;;;1.67;;
23206;SDS011;11773;52.570;13.052;2023-05-07T09:23:58;1.70;;;1.60;;
23206;SDS011;11773;52.570;13.052;2023-05-07T09:26:28;1.50;;;1.40;;
23206;SDS011;11773;52.570;13.052;2023-05-07T09:28:59;1.93;;;1.70;;
23206;SDS011;11773;52.570;13.052;2023-05-07T09:31:29;2.10;;;1.90;;
23206;SDS011;11773;52.570;13.052;2023-05-07T09:33:58;2.17;;;1.90;;
23206;SDS011;11773;52.570;13.052;2023-05-07T09:36:28;1.50;;;1.40;;
23206;SDS011;11773;52.570;13.052;2023-05-07T09:39:00;1.80;;;1.57;;
23206;SDS011;11773;52.570;13.052;2023-05-07T09:41:30;1.90;;;1.57;;
23206;SDS011;11773;52.570;13.052;2023-05-07T09:44:00;2.47;;;2.27;;
23206;SDS011;11773;52.570;13.052;2023-05-07T09:46:30;2.57;;;2.13;;
23206;SDS011;11773;52.570;13.052;2023-05-07T09:49:03;2.40;;;1.77;;
23206;SDS011;11773;52.570;13.052;2023-05-07T09:51:48;1.30;;;1.20;;
23206;SDS011;11773;52.570;13.052;2023-05-07T09:54:16;1.70;;;1.60;;
23206;SDS011;11773;52.570;13.052;2023-05-07T09:56:50;2.13;;;1.80;;
23206;SDS011;11773;52.570;13.052;2023-05-07T09:59:21;1.83;;;1.57;;
23206;SDS011;11773;52.570;13.052;2023-05-07T10:01:56;1.83;;;1.40;;
23206;SDS011;11773;52.570;13.052;2023-05-07T10:04:29;1.70;;;1.60;;
23206;SDS011;11773;52.570;13.052;2023-05-07T10:06:59;1.70;;;1.60;;
23206;SDS011;11773;52.570;13.052;2023-05-07T10:09:31;1.83;;;1.73;;
23206;SDS011;11773;52.570;13.052;2023-05-07T10:12:03;2.33;;;1.93;;
23206;SDS011;11773;52.570;13.052;2023-05-07T10:14:34;1.90;;;1.80;;
23206;SDS011;11773;52.570;13.052;2023-05-07T10:17:04;2.40;;;2.20;;
23206;SDS011;11773;52.570;13.052;2023-05-07T10:19:34;2.23;;;2.03;;
23206;SDS011;11773;52.570;13.052;2023-05-07T10:22:07;2.07;;;1.87;;
23206;SDS011;11773;52.570;13.052;2023-05-07T10:24:37;1.77;;;1.67;;
23206;SDS011;11773;52.570;13.052;2023-05-07T10:27:11;3.17;;;2.03;;
23206;SDS011;11773;52.570;13.052;2023-05-07T10:32:40;2.90;;;1.57;;
23206;SDS011;11773;52.570;13.052;2023-05-07T10:35:18;2.00;;;1.80;;
23206;SDS011;11773;52.570;13.052;2023-05-07T10:37:58;1.50;;;1.40;;
23206;SDS011;11773;52.570;13.052;2023-05-07T10:40:28;1.80;;;1.70;;
23206;SDS011;11773;52.570;13.052;2023-05-07T10:43:00;1.20;;;1.10;;
23206;SDS011;11773;52.570;13.052;2023-05-07T10:45:35;1.37;;;1.27;;
23206;SDS011;11773;52.570;13.052;2023-05-07T10:48:11;1.97;;;1.80;;
23206;SDS011;11773;52.570;13.052;2023-05-07T10:50:45;3.07;;;2.37;;
23206;SDS011;11773;52.570;13.052;2023-05-07T10:55:51;1.87;;;1.67;;
23206;SDS011;11773;52.570;13.052;2023-05-07T10:58:47;1.93;;;1.83;;
23206;SDS011;11773;52.570;13.052;2023-05-07T11:01:17;2.53;;;2.20;;
23206;SDS011;11773;52.570;13.052;2023-05-07T11:04:18;1.47;;;1.37;;
23206;SDS011;11773;52.570;13.052;2023-05-07T11:15:12;1.53;;;1.43;;
23206;SDS011;11773;52.570;13.052;2023-05-07T11:17:52;1.73;;;1.60;;
23206;SDS011;11773;52.570;13.052;2023-05-07T11:26:08;2.47;;;1.47;;
23206;SDS011;11773;52.570;13.052;2023-05-07T11:28:39;1.40;;;1.30;;
23206;SDS011;11773;52.570;13.052;2023-05-07T11:31:10;1.40;;;1.30;;
23206;SDS011;11773;52.570;13.052;2023-05-07T11:33:40;1.27;;;1.17;;
23206;SDS011;11773;52.570;13.052;2023-05-07T11:36:12;2.00;;;1.60;;
23206;SDS011;11773;52.570;13.052;2023-05-07T11:38:42;1.43;;;1.33;;
23206;SDS011;11773;52.570;13.052;2023-05-07T11:41:11;1.37;;;1.27;;
23206;SDS011;11773;52.570;13.052;2023-05-07T11:43:54;1.40;;;1.30;;
23206;SDS011;11773;52.570;13.052;2023-05-07T11:46:26;1.43;;;1.33;;
23206;SDS011;11773;52.570;13.052;2023-05-07T11:48:56;1.50;;;1.40;;
23206;SDS011;11773;52.570;13.052;2023-05-07T11:51:26;1.70;;;1.13;;
23206;SDS011;11773;52.570;13.052;2023-05-07T11:53:55;1.33;;;1.23;;
23206;SDS011;11773;52.570;13.052;2023-05-07T11:56:25;1.77;;;1.10;;
23206;SDS011;11773;52.570;13.052;2023-05-07T11:58:55;1.60;;;1.10;;
23206;SDS011;11773;52.570;13.052;2023-05-07T12:01:24;1.17;;;1.07;;
23206;SDS011;11773;52.570;13.052;2023-05-07T12:03:54;1.23;;;1.10;;
23206;SDS011;11773;52.570;13.052;2023-05-07T12:06:23;2.17;;;1.47;;
23206;SDS011;11773;52.570;13.052;2023-05-07T12:08:54;1.60;;;1.50;;
23206;SDS011;11773;52.570;13.052;2023-05-07T12:11:24;1.40;;;1.30;;
23206;SDS011;11773;52.570;13.052;2023-05-07T12:13:54;1.50;;;1.40;;
23206;SDS011;11773;52.570;13.052;2023-05-07T12:16:26;2.23;;;1.37;;
23206;SDS011;11773;52.570;13.052;2023-05-07T12:18:56;1.27;;;1.17;;
23206;SDS011;11773;52.570;13.052;2023-05-07T12:21:27;1.50;;;1.40;;
23206;SDS011;11773;52.570;13.052;2023-05-07T12:23:58;1.17;;;1.07;;
23206;SDS011;11773;52.570;13.052;2023-05-07T12:26:27;4.00;;;3.37;;
23206;SDS011;11773;52.570;13.052;2023-05-07T12:28:57;3.67;;;2.90;;
23206;SDS011;11773;52.570;13.052;2023-05-07T12:31:27;11.90;;;10.00;;
23206;SDS011;11773;52.570;13.052;2023-05-07T12:33:56;6.47;;;5.73;;
23206;SDS011;11773;52.570;13.052;2023-05-07T12:36:26;4.17;;;3.77;;
23206;SDS011;11773;52.570;13.052;2023-05-07T12:38:59;3.03;;;2.73;;
23206;SDS011;11773;52.570;13.052;2023-05-07T12:41:30;2.53;;;2.30;;
23206;SDS011;11773;52.570;13.052;2023-05-07T12:44:04;1.93;;;1.73;;
23206;SDS011;11773;52.570;13.052;2023-05-07T12:46:38;1.50;;;1.40;;
23206;SDS011;11773;52.570;13.052;2023-05-07T12:49:06;1.40;;;1.30;;
23206;SDS011;11773;52.570;13.052;2023-05-07T12:51:36;1.13;;;1.13;;
23206;SDS011;11773;52.570;13.052;2023-05-07T12:54:06;1.40;;;1.07;;
23206;SDS011;11773;52.570;13.052;2023-05-07T12:56:35;1.27;;;1.17;;
23206;SDS011;11773;52.570;13.052;2023-05-07T12:59:05;1.40;;;1.13;;
23206;SDS011;11773;52.570;13.052;2023-05-07T13:01:35;1.50;;;1.40;;
23206;SDS011;11773;52.570;13.052;2023-05-07T13:04:04;1.47;;;1.00;;
23206;SDS011;11773;52.570;13.052;2023-05-07T13:06:34;1.83;;;1.40;;
23206;SDS011;11773;52.570;13.052;2023-05-07T13:09:03;2.17;;;1.30;;
23206;SDS011;11773;52.570;13.052;2023-05-07T13:11:33;1.80;;;1.50;;
23206;SDS011;11773;52.570;13.052;2023-05-07T13:14:03;1.53;;;1.43;;
23206;SDS011;11773;52.570;13.052;2023-05-07T13:16:32;2.13;;;1.90;;
23206;SDS011;11773;52.570;13.052;2023-05-07T13:19:02;7.43;;;4.87;;
23206;SDS011;11773;52.570;13.052;2023-05-07T13:21:31;6.57;;;5.00;;
23206;SDS011;11773;52.570;13.052;2023-05-07T13:24:01;3.07;;;2.50;;
23206;SDS011;11773;52.570;13.052;2023-05-07T13:26:31;2.30;;;2.00;;
23206;SDS011;11773;52.570;13.052;2023-05-07T13:29:00;1.63;;;1.53;;
23206;SDS011;11773;52.570;13.052;2023-05-07T13:31:30;1.27;;;1.17;;
23206;SDS011;11773;52.570;13.052;2023-05-07T13:34:01;2.60;;;1.47;;
23206;SDS011;11773;52.570;13.052;2023-05-07T13:36:30;1.40;;;1.30;;
23206;SDS011;11773;52.570;13.052;2023-05-07T13:39:01;1.00;;;1.00;;
23206;SDS011;11773;52.570;13.052;2023-05-07T13:41:33;1.20;;;1.10;;
23206;SDS011;11773;52.570;13.052;2023-05-07T13:44:03;1.00;;;1.00;;
23206;SDS011;11773;52.570;13.052;2023-05-07T13:46:32;1.17;;;1.13;;
23206;SDS011;11773;52.570;13.052;2023-05-07T13:49:02;1.50;;;1.37;;
23206;SDS011;11773;52.570;13.052;2023-05-07T13:51:31;1.37;;;1.27;;
23206;SDS011;11773;52.570;13.052;2023-05-07T13:54:01;1.70;;;1.57;;
23206;SDS011;11773;52.570;13.052;2023-05-07T13:56:31;1.93;;;1.80;;
23206;SDS011;11773;52.570;13.052;2023-05-07T13:59:01;2.63;;;2.40;;
23206;SDS011;11773;52.570;13.052;2023-05-07T14:01:30;2.23;;;2.10;;
23206;SDS011;11773;52.570;13.052;2023-05-07T14:04:00;1.70;;;1.60;;
23206;SDS011;11773;52.570;13.052;2023-05-07T14:06:30;1.50;;;1.40;;
23206;SDS011;11773;52.570;13.052;2023-05-07T14:08:59;3.13;;;1.70;;
23206;SDS011;11773;52.570;13.052;2023-05-07T14:11:29;1.97;;;1.80;;
23206;SDS011;11773;52.570;13.052;2023-05-07T14:14:00;1.60;;;1.50;;
23206;SDS011;11773;52.570;13.052;2023-05-07T14:16:29;0.93;;;0.93;;
23206;SDS011;11773;52.570;13.052;2023-05-07T14:18:59;0.97;;;0.90;;
23206;SDS011;11773;52.570;13.052;2023-05-07T14:21:28;0.93;;;0.93;;
23206;SDS011;11773;52.570;13.052;2023-05-07T14:23:58;1.27;;;1.17;;
23206;SDS011;11773;52.570;13.052;2023-05-07T14:26:28;0.93;;;0.90;;
23206;SDS011;11773;52.570;13.052;2023-05-07T14:28:57;1.17;;;1.07;;
23206;SDS011;11773;52.570;13.052;2023-05-07T14:31:27;1.63;;;1.20;;
23206;SDS011;11773;52.570;13.052;2023-05-07T14:33:57;1.20;;;1.20;;
23206;SDS011;11773;52.570;13.052;2023-05-07T14:36:26;0.90;;;0.90;;
23206;SDS011;11773;52.570;13.052;2023-05-07T14:38:58;0.90;;;0.80;;
23206;SDS011;11773;52.570;13.052;2023-05-07T14:41:27;1.43;;;1.27;;
23206;SDS011;11773;52.570;13.052;2023-05-07T14:43:58;0.90;;;0.90;;
23206;SDS011;11773;52.570;13.052;2023-05-07T14:46:28;0.70;;;0.70;;
23206;SDS011;11773;52.570;13.052;2023-05-07T14:48:58;1.27;;;1.17;;
23206;SDS011;11773;52.570;13.052;2023-05-07T14:51:28;0.60;;;0.60;;
23206;SDS011;11773;52.570;13.052;2023-05-07T14:53:57;0.70;;;0.60;;
23206;SDS011;11773;52.570;13.052;2023-05-07T14:56:28;1.43;;;1.33;;
23206;SDS011;11773;52.570;13.052;2023-05-07T14:58:58;1.40;;;1.30;;
23206;SDS011;11773;52.570;13.052;2023-05-07T15:01:27;1.35;;;1.25;;
23206;SDS011;11773;52.570;13.052;2023-05-07T15:03:57;0.93;;;0.93;;
23206;SDS011;11773;52.570;13.052;2023-05-07T15:06:27;1.63;;;1.50;;
23206;SDS011;11773;52.570;13.052;2023-05-07T15:08:57;1.07;;;0.97;;
23206;SDS011;11773;52.570;13.052;2023-05-07T15:11:27;0.93;;;0.80;;